Avoca, Minnesota
Current Conditions -  °F | °C
As of 3:36 PM on Friday 19 Dec 2014 (Local Time) from KDVP Reporting Station
Haze Haze  
Wind Chill: -5°   Ceiling: 800
Heat Index: -1°   Visibility: 5mi
Dew Point: -2°   Wind: 7mph
Humidity: 96%   Direction: 180°S
Pressure: 30.09"   Gusts: NA
Location:  43.95°N, 95.65°W
Report Text: KDVP 192136Z AUTO 18006KT 5SM BR OVC008 M01/M02 A3009 RMK AO2 T10131018
Loading
Personal Weather Stations






























Interactive Weather Map New forecast layout! Learn more

10-Day Weather Forecast

Advertisements
Track Severe Weather on mobile